Terminal Aerodrome Forecast
Issued by NWS

Home | Current Version | Previous Version | Graphics & Text | Print | Product List | Glossary On
Versions: 1 2 3 4 5 6 7 8 9 10 11 12 13 14 15 16 17 18 19 20 21 22 23 24 25 26 27 28 29 30 31 32 33 34
000
FTUS45 KGGW 010538
TAFGDV
TAF
KGDV 010538Z 0106/0206 VRB04KT 4SM -SHSN OVC030
      TEMPO 0106/0109 2SM -SN SCT012 OVC019
     FM010900 23004KT 1SM BR OVC025
     FM011400 21004KT P6SM OVC040=

USA.gov is the U.S. government's official web portal to all federal, state and local government web resources and services.